createdAt,value
2019-03-21T00:02:49.551Z,96.28
2019-03-21T00:05:46.148Z,98.75
2019-03-21T00:08:42.921Z,93.30
2019-03-21T00:12:08.350Z,94.07
2019-03-21T00:15:30.199Z,88.75
2019-03-21T00:18:26.602Z,93.60
2019-03-21T00:21:22.876Z,94.15
2019-03-21T00:24:19.424Z,94.20
2019-03-21T00:27:16.283Z,101.05
2019-03-21T00:30:16.051Z,104.75
2019-03-21T00:33:12.841Z,105.43
2019-03-21T00:36:10.455Z,100.55
2019-03-21T00:39:07.929Z,92.05
2019-03-21T00:42:05.296Z,95.30
2019-03-21T00:45:02.014Z,94.55
2019-03-21T00:47:58.870Z,96.40
2019-03-21T00:50:55.759Z,96.53
2019-03-21T00:53:52.452Z,104.15
2019-03-21T00:56:50.031Z,102.72
2019-03-21T00:59:46.913Z,114.70
2019-03-21T01:02:44.121Z,116.97
2019-03-21T01:05:40.908Z,133.25
2019-03-21T01:08:37.200Z,140.43
2019-03-21T01:11:33.999Z,153.50
2019-03-21T01:14:30.800Z,153.00
2019-03-21T01:17:27.763Z,156.80
2019-03-21T01:20:24.148Z,161.03
2019-03-21T01:23:20.726Z,160.48
2019-03-21T01:26:17.143Z,150.10
2019-03-21T01:29:13.840Z,152.05
2019-03-21T01:32:10.879Z,154.25
2019-03-21T01:35:07.491Z,146.22
2019-03-21T01:38:04.223Z,150.15
2019-03-21T01:41:01.523Z,144.30
2019-03-21T01:43:58.319Z,152.30
2019-03-21T01:46:55.440Z,161.57
2019-03-21T01:49:53.280Z,165.70
2019-03-21T01:52:51.143Z,172.80
2019-03-21T01:55:47.476Z,165.25
2019-03-21T01:58:44.067Z,162.40
2019-03-21T02:01:40.758Z,175.12
2019-03-21T02:04:37.003Z,170.55
2019-03-21T02:07:33.556Z,164.90
2019-03-21T02:10:30.320Z,168.87
2019-03-21T02:13:26.905Z,170.53
2019-03-21T02:16:24.066Z,170.75
2019-03-21T02:19:20.990Z,155.45
2019-03-21T02:22:17.569Z,162.53
2019-03-21T02:25:17.504Z,158.15
2019-03-21T02:28:14.090Z,164.20
2019-03-21T02:31:11.763Z,141.10
2019-03-21T02:34:08.112Z,136.95
2019-03-21T02:37:06.703Z,145.45
2019-03-21T02:40:02.917Z,141.60
2019-03-21T02:43:16.951Z,145.75
2019-03-21T02:46:13.281Z,132.85
2019-03-21T02:49:10.240Z,128.93
2019-03-21T02:52:06.712Z,115.92
2019-03-21T02:55:03.649Z,114.35
2019-03-21T02:58:02.194Z,118.87
2019-03-21T03:00:58.702Z,110.60
2019-03-21T03:03:55.602Z,129.53
2019-03-21T03:06:52.343Z,111.47
2019-03-21T03:09:50.315Z,110.00
2019-03-21T03:12:47.211Z,116.20
2019-03-21T03:15:43.811Z,107.75
2019-03-21T03:18:40.370Z,119.37
2019-03-21T03:21:36.995Z,107.17
2019-03-21T03:24:35.227Z,112.62
2019-03-21T03:27:32.022Z,109.10
2019-03-21T03:30:29.219Z,112.10
2019-03-21T03:33:26.041Z,107.75
2019-03-21T03:36:22.932Z,109.78
2019-03-21T03:39:19.921Z,96.37
2019-03-21T03:42:17.791Z,97.90
2019-03-21T03:45:16.892Z,92.92
2019-03-21T03:48:13.870Z,89.80
2019-03-21T03:51:11.104Z,67.50
2019-03-21T03:54:07.839Z,54.80
2019-03-21T03:57:04.644Z,56.98
2019-03-21T04:00:01.018Z,56.18
2019-03-21T04:02:58.473Z,50.65
2019-03-21T04:05:55.204Z,52.75
2019-03-21T04:08:51.412Z,47.53
2019-03-21T04:11:47.849Z,50.80
2019-03-21T04:14:44.650Z,54.60
2019-03-21T04:17:41.051Z,46.63
2019-03-21T04:20:39.934Z,52.30
2019-03-21T04:23:37.223Z,45.80
2019-03-21T04:26:34.474Z,49.42
2019-03-21T04:29:30.560Z,48.42
2019-03-21T04:32:26.550Z,43.08
2019-03-21T04:35:22.976Z,41.13
2019-03-21T04:38:20.498Z,46.45
2019-03-21T04:41:17.429Z,36.23
2019-03-21T04:44:13.997Z,38.48
2019-03-21T04:47:10.463Z,37.13
2019-03-21T04:50:06.963Z,41.70
2019-03-21T04:53:03.646Z,41.08
2019-03-21T04:56:00.954Z,48.48
2019-03-21T04:58:57.476Z,43.87
2019-03-21T05:01:54.109Z,48.78
2019-03-21T05:04:50.509Z,40.83
2019-03-21T05:07:47.262Z,42.15
2019-03-21T05:10:44.960Z,38.23
2019-03-21T05:13:42.969Z,44.18
2019-03-21T05:16:39.746Z,42.40
2019-03-21T05:19:36.435Z,42.95
2019-03-21T05:22:34.415Z,39.55
2019-03-21T05:25:32.043Z,37.58
2019-03-21T05:28:28.925Z,44.63
2019-03-21T05:31:28.766Z,39.58
2019-03-21T05:34:25.477Z,47.20
2019-03-21T05:37:21.934Z,37.53
2019-03-21T05:40:19.595Z,42.60
2019-03-21T05:43:19.141Z,39.13
2019-03-21T05:46:26.079Z,42.38
2019-03-21T05:49:15.072Z,38.98
2019-03-21T05:52:13.111Z,39.73
2019-03-21T05:55:09.748Z,44.05
2019-03-21T05:58:06.699Z,45.78
2019-03-21T06:01:05.096Z,38.58
2019-03-21T06:04:01.419Z,44.23
2019-03-21T06:07:24.979Z,48.17
2019-03-21T06:10:22.409Z,41.70
2019-03-21T06:13:19.186Z,39.10
2019-03-21T06:16:16.553Z,38.50
2019-03-21T06:19:47.697Z,40.75
2019-03-21T06:23:06.369Z,39.85
2019-03-21T06:26:30.143Z,37.58
2019-03-21T06:29:26.837Z,41.60
2019-03-21T06:32:23.235Z,38.25
2019-03-21T06:35:27.691Z,42.10
2019-03-21T06:38:24.246Z,33.45
2019-03-21T06:41:21.049Z,34.75
2019-03-21T06:44:17.815Z,33.25
2019-03-21T06:47:14.020Z,32.83
2019-03-21T06:50:13.572Z,31.82
2019-03-21T06:53:09.855Z,32.35
2019-03-21T06:56:06.331Z,31.62
2019-03-21T06:59:03.035Z,30.75
2019-03-21T07:01:59.570Z,32.45
2019-03-21T07:04:56.019Z,36.08
2019-03-21T07:07:52.724Z,31.20
2019-03-21T07:10:49.580Z,30.88
2019-03-21T07:13:45.850Z,40.80
2019-03-21T07:16:42.430Z,38.25
2019-03-21T07:19:38.979Z,38.28
2019-03-21T07:22:35.307Z,33.65
2019-03-21T07:25:32.274Z,30.17
2019-03-21T07:28:29.132Z,33.28
2019-03-21T07:31:25.536Z,34.18
2019-03-21T07:34:22.300Z,32.42
2019-03-21T07:37:18.615Z,32.03
2019-03-21T07:40:15.587Z,32.38
2019-03-21T07:43:11.733Z,35.73
2019-03-21T07:46:08.240Z,31.45
2019-03-21T07:49:04.757Z,35.40
2019-03-21T07:52:03.113Z,32.00
2019-03-21T07:54:59.417Z,32.90
2019-03-21T07:57:55.882Z,32.38
2019-03-21T08:00:52.730Z,36.23
2019-03-21T08:03:49.708Z,30.77
2019-03-21T08:06:46.609Z,31.70
2019-03-21T08:09:43.598Z,32.65
2019-03-21T08:12:40.486Z,39.08
2019-03-21T08:15:37.988Z,31.62
2019-03-21T08:18:34.202Z,35.05
2019-03-21T08:21:30.967Z,29.27
2019-03-21T08:24:27.563Z,32.67
2019-03-21T08:27:24.325Z,31.95
2019-03-21T08:30:31.312Z,30.70
2019-03-21T08:33:28.365Z,33.58
2019-03-21T08:36:25.206Z,29.30
2019-03-21T08:39:21.889Z,29.85
2019-03-21T08:42:19.011Z,30.32
2019-03-21T08:45:16.132Z,31.73
2019-03-21T08:48:13.501Z,30.25
2019-03-21T08:51:10.400Z,32.03
2019-03-21T08:54:08.679Z,30.95
2019-03-21T08:57:06.607Z,33.10
2019-03-21T09:00:05.573Z,38.80
2019-03-21T09:03:02.113Z,26.73
2019-03-21T09:05:59.424Z,26.93
2019-03-21T09:08:55.871Z,28.73
2019-03-21T09:11:53.107Z,28.15
2019-03-21T09:14:50.849Z,31.33
2019-03-21T09:17:47.080Z,28.75
2019-03-21T09:20:44.045Z,24.27
2019-03-21T09:23:40.851Z,27.65
2019-03-21T09:26:37.650Z,28.17
2019-03-21T09:29:34.399Z,27.95
2019-03-21T09:32:31.201Z,40.80
2019-03-21T09:35:27.876Z,28.60
2019-03-21T09:38:25.400Z,25.27
2019-03-21T09:41:22.666Z,27.20
2019-03-21T09:44:27.298Z,27.17
2019-03-21T09:47:24.576Z,28.47
2019-03-21T09:50:29.679Z,28.05
2019-03-21T09:53:26.180Z,30.55
2019-03-21T09:56:24.071Z,27.95
2019-03-21T09:59:19.730Z,27.95
2019-03-21T10:02:16.321Z,30.45
2019-03-21T10:05:13.330Z,27.42
2019-03-21T10:08:10.063Z,28.80
2019-03-21T10:11:06.955Z,27.27
2019-03-21T10:14:03.656Z,26.62
2019-03-21T10:17:00.082Z,25.97
2019-03-21T10:19:57.111Z,25.72
2019-03-21T10:22:53.781Z,27.05
2019-03-21T10:25:49.996Z,27.20
2019-03-21T10:28:47.167Z,27.22
2019-03-21T10:31:43.842Z,31.75
2019-03-21T10:34:40.293Z,26.45
2019-03-21T10:37:37.424Z,26.65
2019-03-21T10:40:33.755Z,31.82
2019-03-21T10:43:31.222Z,28.98
2019-03-21T10:46:27.959Z,31.23
2019-03-21T10:49:25.220Z,27.62
2019-03-21T10:52:21.832Z,28.92
2019-03-21T10:55:18.185Z,34.05
2019-03-21T10:58:14.896Z,27.48
2019-03-21T11:01:11.514Z,37.03
2019-03-21T11:04:08.489Z,30.17
2019-03-21T11:07:04.331Z,30.70
2019-03-21T11:10:01.161Z,31.90
2019-03-21T11:13:01.716Z,25.43
2019-03-21T11:15:58.432Z,30.90
2019-03-21T11:18:55.378Z,31.80
2019-03-21T11:21:53.541Z,30.95
2019-03-21T11:24:49.795Z,31.15
2019-03-21T11:27:46.232Z,30.97
2019-03-21T11:30:47.276Z,29.12
2019-03-21T11:33:43.839Z,31.12
2019-03-21T11:36:41.055Z,30.65
2019-03-21T11:39:38.343Z,33.53
2019-03-21T11:42:34.965Z,32.95
2019-03-21T11:45:31.500Z,31.45
2019-03-21T11:48:28.641Z,29.45
2019-03-21T11:51:25.395Z,30.97
2019-03-21T11:54:22.459Z,34.43
2019-03-21T11:57:19.501Z,34.63
2019-03-21T12:00:16.998Z,29.15
2019-03-21T12:03:13.529Z,33.92
2019-03-21T12:06:10.274Z,36.03
2019-03-21T12:09:08.572Z,34.27
2019-03-21T12:12:05.593Z,29.42
2019-03-21T12:15:02.561Z,38.02
2019-03-21T12:17:59.520Z,30.05
2019-03-21T12:20:57.143Z,33.45
2019-03-21T12:24:04.468Z,32.20
2019-03-21T12:27:01.142Z,40.48
2019-03-21T12:29:57.728Z,42.90
2019-03-21T12:32:54.559Z,39.23
2019-03-21T12:35:51.185Z,40.70
2019-03-21T12:38:47.352Z,50.58
2019-03-21T12:41:43.962Z,51.80
2019-03-21T12:44:41.399Z,49.33
2019-03-21T12:47:38.161Z,47.70
2019-03-21T12:50:35.116Z,41.90
2019-03-21T12:53:31.627Z,47.60
2019-03-21T12:56:28.884Z,47.25
2019-03-21T12:59:25.337Z,42.95
2019-03-21T13:02:31.968Z,45.65
2019-03-21T13:05:22.061Z,44.35
2019-03-21T13:08:19.795Z,48.45
2019-03-21T13:11:16.640Z,39.70
2019-03-21T13:14:13.067Z,44.83
2019-03-21T13:17:09.348Z,45.08
2019-03-21T13:20:05.608Z,49.30
2019-03-21T13:23:00.761Z,48.58
2019-03-21T13:26:04.092Z,53.35
2019-03-21T13:29:00.543Z,57.78
2019-03-21T13:31:57.508Z,54.48
2019-03-21T13:34:54.353Z,50.65
2019-03-21T13:37:50.664Z,54.70
2019-03-21T13:40:47.015Z,51.45
2019-03-21T13:43:43.794Z,57.20
2019-03-21T13:46:40.291Z,58.73
2019-03-21T13:49:36.776Z,52.00
2019-03-21T13:52:35.109Z,57.00
2019-03-21T13:55:31.170Z,58.92
2019-03-21T13:58:27.690Z,79.35
2019-03-21T14:01:24.191Z,80.80
2019-03-21T14:04:21.062Z,71.15
2019-03-21T14:07:17.992Z,68.28
2019-03-21T14:10:15.331Z,71.28
2019-03-21T14:13:11.462Z,73.02
2019-03-21T14:16:09.226Z,71.40
2019-03-21T14:19:05.161Z,75.90
2019-03-21T14:22:01.599Z,65.00
2019-03-21T14:24:57.931Z,83.75
2019-03-21T14:27:54.242Z,74.60
2019-03-21T14:30:51.970Z,85.90
2019-03-21T14:33:49.419Z,84.52
2019-03-21T14:36:45.942Z,94.22
2019-03-21T14:39:42.572Z,99.05
2019-03-21T14:42:38.423Z,100.12
2019-03-21T14:45:35.319Z,91.47
2019-03-21T14:48:31.589Z,89.30
2019-03-21T14:51:28.127Z,94.95
2019-03-21T14:54:24.409Z,79.87
2019-03-21T14:57:21.295Z,102.62
2019-03-21T15:00:19.785Z,106.40
2019-03-21T15:03:16.010Z,90.57
2019-03-21T15:06:12.234Z,110.22
2019-03-21T15:09:11.078Z,90.87
2019-03-21T15:12:07.563Z,87.65
2019-03-21T15:15:03.891Z,80.90
2019-03-21T15:18:00.377Z,87.35
2019-03-21T15:20:56.777Z,94.75
2019-03-21T15:23:59.210Z,88.30
2019-03-21T15:26:51.253Z,76.40
2019-03-21T15:29:47.938Z,89.75
2019-03-21T15:32:44.382Z,81.32
2019-03-21T15:35:41.035Z,84.85
2019-03-21T15:38:37.185Z,90.38
2019-03-21T15:41:33.492Z,89.47
2019-03-21T15:44:29.370Z,98.03
2019-03-21T15:47:28.247Z,83.03
2019-03-21T15:50:41.332Z,87.33
2019-03-21T15:53:38.795Z,92.88
2019-03-21T15:56:35.988Z,95.38
2019-03-21T15:59:32.809Z,84.10
2019-03-21T16:02:29.115Z,90.85
2019-03-21T16:05:26.402Z,86.42
2019-03-21T16:08:23.149Z,79.45
2019-03-21T16:11:20.049Z,82.10
2019-03-21T16:14:17.537Z,78.35
2019-03-21T16:17:14.715Z,80.80
2019-03-21T16:20:11.745Z,72.90
2019-03-21T16:23:09.002Z,79.53
2019-03-21T16:26:05.325Z,76.80
2019-03-21T16:29:01.812Z,66.22
2019-03-21T16:32:02.277Z,69.75
2019-03-21T16:34:57.199Z,66.37
2019-03-21T16:37:54.771Z,66.05
2019-03-21T16:40:50.917Z,72.45
2019-03-21T16:43:47.338Z,65.83
2019-03-21T16:46:44.232Z,72.55
2019-03-21T16:49:40.649Z,62.88
2019-03-21T16:52:37.410Z,67.58
2019-03-21T16:55:33.695Z,60.40
2019-03-21T16:58:30.904Z,61.58
2019-03-21T17:01:27.560Z,61.53
2019-03-21T17:04:24.919Z,58.23
2019-03-21T17:07:21.522Z,56.40
2019-03-21T17:10:17.868Z,67.12
2019-03-21T17:13:15.391Z,80.00
2019-03-21T17:16:14.474Z,81.40
2019-03-21T17:19:12.725Z,77.22
2019-03-21T17:22:09.511Z,75.70
2019-03-21T17:25:06.348Z,68.97
2019-03-21T17:28:03.507Z,64.80
2019-03-21T17:31:02.805Z,75.72
2019-03-21T17:34:00.183Z,86.10
2019-03-21T17:36:56.738Z,73.02
2019-03-21T17:39:53.548Z,81.02
2019-03-21T17:42:50.467Z,80.30
2019-03-21T17:45:47.183Z,73.97
2019-03-21T17:48:44.622Z,92.95
2019-03-21T17:51:42.583Z,78.33
2019-03-21T17:54:41.757Z,76.72
2019-03-21T17:57:35.621Z,76.90
2019-03-21T18:00:33.276Z,66.75
2019-03-21T18:03:29.537Z,54.75
2019-03-21T18:06:25.856Z,55.90
2019-03-21T18:09:22.974Z,49.70
2019-03-21T18:12:19.758Z,48.17
2019-03-21T18:15:17.170Z,53.80
2019-03-21T18:18:13.551Z,54.77
2019-03-21T18:21:09.774Z,52.15
2019-03-21T18:24:06.125Z,58.02
2019-03-21T18:27:02.496Z,53.02
2019-03-21T18:29:59.497Z,59.50
2019-03-21T18:32:55.687Z,56.73
2019-03-21T18:35:52.388Z,54.00
2019-03-21T18:38:58.664Z,54.15
2019-03-21T18:41:46.350Z,50.10
2019-03-21T18:44:43.395Z,52.38
2019-03-21T18:47:39.943Z,51.33
2019-03-21T18:50:36.570Z,49.88
2019-03-21T18:53:33.058Z,53.95
2019-03-21T18:56:29.809Z,51.45
2019-03-21T18:59:26.202Z,46.15
2019-03-21T19:02:22.767Z,51.25
2019-03-21T19:05:20.354Z,53.58
2019-03-21T19:08:16.364Z,48.15
2019-03-21T19:11:12.883Z,48.38
2019-03-21T19:14:09.664Z,59.38
2019-03-21T19:17:05.488Z,60.65
2019-03-21T19:20:01.574Z,54.93
2019-03-21T19:22:58.629Z,59.30
2019-03-21T19:25:55.272Z,58.33
2019-03-21T19:28:51.626Z,60.35
2019-03-21T19:31:47.714Z,60.17
2019-03-21T19:34:44.409Z,66.17
2019-03-21T19:37:40.514Z,57.38
2019-03-21T19:40:37.369Z,59.25
2019-03-21T19:43:33.930Z,72.53
2019-03-21T19:46:30.557Z,65.47
2019-03-21T19:49:26.755Z,61.83
2019-03-21T19:52:22.805Z,71.47
2019-03-21T19:55:30.270Z,68.80
2019-03-21T19:58:16.412Z,65.87
2019-03-21T20:01:12.554Z,64.67
2019-03-21T20:04:09.063Z,67.80
2019-03-21T20:07:06.080Z,67.05
2019-03-21T20:10:02.408Z,65.92
2019-03-21T20:12:58.706Z,72.42
2019-03-21T20:15:55.017Z,72.47
2019-03-21T20:18:51.944Z,76.20
2019-03-21T20:21:48.556Z,75.20
2019-03-21T20:24:45.036Z,82.75
2019-03-21T20:27:41.051Z,74.00
2019-03-21T20:30:37.297Z,71.07
2019-03-21T20:33:33.985Z,78.72
2019-03-21T20:36:30.313Z,74.42
2019-03-21T20:39:26.689Z,81.30
2019-03-21T20:42:22.912Z,88.55
2019-03-21T20:45:20.018Z,83.60
2019-03-21T20:48:16.787Z,90.80
2019-03-21T20:51:13.344Z,87.95
2019-03-21T20:54:09.871Z,88.05
2019-03-21T20:57:08.634Z,88.62
2019-03-21T21:00:05.126Z,97.37
2019-03-21T21:03:02.358Z,91.92
2019-03-21T21:05:59.046Z,83.07
2019-03-21T21:08:55.251Z,91.47
2019-03-21T21:11:51.940Z,83.00
2019-03-21T21:14:48.499Z,85.15
2019-03-21T21:17:45.246Z,91.47
2019-03-21T21:20:44.373Z,83.15
2019-03-21T21:23:40.947Z,101.25
2019-03-21T21:26:37.349Z,115.25
2019-03-21T21:29:33.866Z,96.05
2019-03-21T21:32:30.317Z,87.08
2019-03-21T21:35:26.990Z,80.17
2019-03-21T21:38:23.537Z,80.60
2019-03-21T21:41:20.067Z,77.42
2019-03-21T21:44:16.428Z,75.65
2019-03-21T21:47:13.055Z,95.92
2019-03-21T21:50:10.341Z,80.40
2019-03-21T21:53:07.039Z,76.85
2019-03-21T21:56:16.975Z,75.47
2019-03-21T21:59:02.614Z,75.40
2019-03-21T22:01:58.802Z,86.20
2019-03-21T22:04:55.140Z,78.15
2019-03-21T22:07:51.362Z,76.12
2019-03-21T22:10:47.846Z,75.37
2019-03-21T22:13:43.954Z,75.42
2019-03-21T22:16:40.961Z,80.67
2019-03-21T22:19:37.321Z,78.07
2019-03-21T22:22:33.896Z,81.85
2019-03-21T22:25:30.423Z,77.27
2019-03-21T22:28:27.122Z,69.05
2019-03-21T22:31:23.323Z,69.85
2019-03-21T22:34:19.731Z,74.17
2019-03-21T22:37:16.430Z,73.42
2019-03-21T22:40:13.603Z,69.58
2019-03-21T22:43:10.033Z,72.00
2019-03-21T22:46:06.473Z,71.40
2019-03-21T22:49:02.854Z,69.22
2019-03-21T22:52:00.468Z,75.28
2019-03-21T22:54:56.710Z,72.67
2019-03-21T22:57:53.059Z,78.45
2019-03-21T23:00:50.443Z,76.77
2019-03-21T23:03:47.635Z,79.70
2019-03-21T23:06:43.618Z,75.25
2019-03-21T23:09:40.207Z,75.67
2019-03-21T23:12:36.892Z,104.00
2019-03-21T23:15:34.561Z,88.58
2019-03-21T23:18:31.452Z,94.52
2019-03-21T23:21:27.651Z,91.35
2019-03-21T23:24:24.993Z,94.67
2019-03-21T23:27:21.582Z,90.55
2019-03-21T23:30:19.055Z,93.07
2019-03-21T23:33:16.310Z,89.62
2019-03-21T23:36:12.588Z,92.17
2019-03-21T23:39:09.055Z,98.12
2019-03-21T23:42:05.706Z,95.12
2019-03-21T23:45:02.286Z,85.53
2019-03-21T23:47:58.801Z,89.13
2019-03-21T23:50:55.625Z,102.92
2019-03-21T23:53:52.548Z,110.48
2019-03-21T23:56:49.459Z,107.65
2019-03-21T23:59:45.465Z,110.95
